METAR Data
IDs: Format: Raw Decoded Include TAF

Data at: 0132 UTC 01 Mar 2021

Region: TOP
KATL 010052Z 20006KT 10SM FEW080 SCT200 BKN250 22/15 A3001 RMK AO2 SLP157 T02170150

KBOS 010054Z 12006KT 10SM BKN075 BKN150 03/M01 A3016 RMK AO2 SLP211 T00281006

KBWI 010054Z 04003KT 1SM R10/6000VP6000FT -RA BR OVC002 06/05 A2995 RMK AO2 SFC VIS 1 1/2 SLP141 P0000 T00610050

KCLE 010107Z 21012KT 10SM FEW019 SCT024 BKN031 14/11 A2969 RMK AO2 T01390111

KCLT 010052Z 20005KT 10SM FEW075 SCT220 BKN250 19/14 A2998 RMK AO2 SLP150 T01940144 $

KCVG 010052Z 21003KT 7SM BKN030 OVC045 14/13 A2981 RMK AO2 SLP090 T01440133

KDCA 010103Z 00000KT 3/4SM R01/3500V5500FT -DZ BR OVC002 07/06 A2996 RMK AO2 P0000 T00720061 $

KDEN 010053Z 16007KT 10SM FEW080 M03/M12 A3007 RMK AO2 SLP211 T10281122

KDFW 010053Z 36013KT 10SM BKN035 OVC047 12/06 A2994 RMK AO2 SLP135 T01220056

KDTW 010053Z 21007KT 10SM FEW030 BKN040 OVC065 09/07 A2966 RMK AO2 DZB2359E10 SLP045 P0000 T00940072

KEWR 010051Z 09006KT 2 1/2SM -RA BR OVC005 06/05 A3005 RMK AO2 SLP175 P0003 T00560050

KFLL 010053Z 11010KT 10SM FEW018 SCT035 26/22 A3013 RMK AO2 SLP201 T02610222 $

KIAD 010052Z 18005KT 1/2SM R01R/4000V6000FT BR OVC002 07/07 A2994 RMK AO2 SFC VIS 1 SLP140 T00670067

KIAH 010053Z 15009KT 10SM SCT026 OVC250 24/20 A2986 RMK AO2 SLP110 T02440200

KJFK 010051Z 10010KT 2 1/2SM -RA BR BKN006 OVC015 05/04 A3006 RMK AO2 SFC VIS 3 RAB18 SLP177 P0001 T00500039

KLAS 010056Z 06009KT 10SM SCT250 12/M19 A3028 RMK AO2 SLP253 T01221194 $

KLAX 010053Z 27008KT 10SM BKN330 17/05 A3013 RMK AO2 SLP203 T01720050

KLGA 010051Z 09005KT 2SM -RA BR OVC007 06/04 A3006 RMK AO2 SFC VIS 3 DZE20RAB20 SLP179 P0002 T00560039

KMCO 010053Z 13009KT 10SM BKN060 26/21 A3011 RMK AO2 SLP194 T02560206

KMDW 010053Z 29015KT 10SM SCT021 OVC230 04/M01 A2985 RMK AO2 PK WND 28027/0014 SLP116 T00391011

KMEM 010101Z 33008KT 3SM -RA BR FEW009 BKN016 OVC036 16/15 A2991 RMK AO2 LTG DSNT NE AND NW TSE0058 OCNL LTGICCCCG DSNT E CB DSNT E MOV E P0008 T01610150 $

KMIA 010053Z 11009KT 10SM SCT021 SCT045 26/22 A3013 RMK AO2 RAB07E22 SLP204 P0000 T02560222 $

KMSP 010053Z 29012KT 10SM CLR M06/M11 A3002 RMK AO2 SLP175 T10561111

KORD 010051Z 29013G21KT 10SM SCT021 BKN250 04/M01 A2985 RMK AO2 PK WND 29027/0007 SLP111 T00391006

KPDX 010053Z 00000KT 10SM FEW060 FEW200 13/02 A3023 RMK AO2 SLP236 T01330017

KPHL 010107Z 05006KT 1 1/2SM -RA BR OVC003 06/06 A2997 RMK AO2 P0000 T00610061

KPHX 010051Z 36012G24KT 10SM FEW120 16/M22 A3012 RMK AO2 SLP195 FU DSNT SE T01611222 $

KPIT 010051Z 16004KT 2SM -DZ BR OVC003 10/10 A2975 RMK AO2 DZB05 SLP084 P0001 T01000100

KSAN 010051Z 31009KT 10SM FEW250 19/07 A3013 RMK AO2 SLP203 T01890067

KSEA 010053Z 21008KT 10SM OVC040 10/04 A3022 RMK AO2 SLP243 T01000044

KSFO 010056Z 28017KT 10SM SCT200 17/M02 A3014 RMK AO2 SLP206 T01671017 $

KSLC 010054Z 32007KT 10SM FEW055 BKN220 02/M11 A3034 RMK AO2 SLP293 T00171106 $

KSTL 010051Z 32012KT 10SM BKN160 09/02 A2995 RMK AO2 SLP142 T00890022

KTPA 010053Z 19004KT 10SM FEW050 FEW270 24/20 A3011 RMK AO2 SLP195 T02390200